Time;durP1;ratioP1;P1;durP2;ratioP2;P2;SDS_P1;SDS_P2;PMS_P1;PMS_P2;Temp;Humidity;BMP_temperature;BMP_pressure;BME280_temperature;BME280_humidity;BME280_pressure;Samples;Min_cycle;Max_cycle;Signal;HPM_P1;HPM_P2
2022/02/08 00:00:03;;;;;;;3.30;1.35;;;8.10;94.70;;;;;;5063790;28;20025;-49
2022/02/08 00:02:30;;;;;;;0.80;0.80;;;8.10;94.70;;;;;;5058258;28;20033;-49
2022/02/08 00:04:58;;;;;;;2.33;0.95;;;8.10;94.70;;;;;;5057761;28;20029;-49
2022/02/08 00:07:26;;;;;;;4.18;1.55;;;8.10;94.70;;;;;;5062066;28;20423;-49
2022/02/08 00:09:51;;;;;;;0.90;0.80;;;8.10;94.70;;;;;;5063299;28;20431;-49
2022/02/08 00:12:17;;;;;;;2.92;1.10;;;8.10;94.60;;;;;;5064329;28;20046;-49
2022/02/08 00:14:43;;;;;;;5.18;1.20;;;8.10;94.90;;;;;;5059505;28;20052;-49
2022/02/08 00:17:09;;;;;;;3.10;0.80;;;8.10;94.60;;;;;;5060581;28;20033;-49
2022/02/08 00:19:35;;;;;;;1.20;0.88;;;8.10;94.60;;;;;;5061904;28;20029;-49
2022/02/08 00:22:02;;;;;;;2.08;1.08;;;8.10;94.60;;;;;;5063394;28;20036;-49
2022/02/08 00:24:28;;;;;;;4.80;1.08;;;8.10;94.60;;;;;;5058201;28;20043;-49
2022/02/08 00:26:54;;;;;;;4.03;1.40;;;8.10;94.60;;;;;;5062131;28;20029;-49
2022/02/08 00:29:21;;;;;;;3.90;1.45;;;8.10;94.60;;;;;;5069265;28;20024;-49
2022/02/08 00:31:46;;;;;;;6.05;2.10;;;8.10;94.60;;;;;;5059829;28;20406;-49
2022/02/08 00:34:12;;;;;;;2.25;1.13;;;8.10;94.60;;;;;;5057562;28;20029;-49
2022/02/08 00:36:38;;;;;;;7.30;1.25;;;8.10;94.60;;;;;;5062043;28;20025;-49
2022/02/08 00:39:06;;;;;;;3.13;1.23;;;8.10;94.60;;;;;;5064374;28;20016;-49
2022/02/08 00:41:32;;;;;;;9.88;1.90;;;8.10;94.60;;;;;;5062736;28;20457;-49
2022/02/08 00:44:03;;;;;;;5.38;1.20;;;8.10;94.60;;;;;;5061982;28;20032;-49
2022/02/08 00:46:48;;;;;;;4.75;1.85;;;8.10;94.60;;;;;;5060099;28;20059;-49
2022/02/08 00:49:14;;;;;;;1.75;1.33;;;8.10;94.60;;;;;;5063886;28;20029;-49
2022/02/08 00:51:47;;;;;;;3.88;1.55;;;8.10;94.50;;;;;;5060654;28;20495;-49
2022/02/08 00:54:15;;;;;;;2.50;1.27;;;8.10;94.50;;;;;;5063081;28;20426;-49
2022/02/08 00:56:41;;;;;;;4.53;1.60;;;8.10;94.60;;;;;;5061051;28;20151;-49
2022/02/08 01:09:17;;;;;;;8.48;1.15;;;8.10;94.50;;;;;;5051496;28;20369;-49
2022/02/08 01:15:17;;;;;;;2.65;1.23;;;8.10;94.50;;;;;;5063607;28;20254;-49
2022/02/08 01:17:46;;;;;;;7.43;1.20;;;8.10;94.50;;;;;;5052769;28;20470;-49
2022/02/08 01:20:16;;;;;;;3.75;1.10;;;8.10;94.50;;;;;;5063363;28;20092;-49
2022/02/08 01:22:42;;;;;;;1.55;0.98;;;8.10;94.50;;;;;;5061957;28;20055;-49
2022/02/08 01:25:14;;;;;;;1.90;1.02;;;8.10;94.50;;;;;;5061228;28;20573;-49
2022/02/08 01:27:47;;;;;;;4.68;1.45;;;8.10;94.40;;;;;;5061815;28;20045;-49
2022/02/08 01:30:26;;;;;;;2.10;1.10;;;8.10;94.40;;;;;;5060430;28;20454;-49
2022/02/08 01:35:31;;;;;;;5.32;1.35;;;8.10;94.40;;;;;;5059353;28;20106;-49
2022/02/08 01:38:07;;;;;;;5.32;1.23;;;8.10;94.50;;;;;;5061585;28;20079;-49
2022/02/08 01:48:27;;;;;;;1.88;0.90;;;8.10;94.40;;;;;;5058054;28;20056;-49
2022/02/08 01:50:55;;;;;;;1.80;0.98;;;8.10;94.40;;;;;;5062576;28;20032;-48
2022/02/08 01:53:21;;;;;;;4.28;1.20;;;8.10;94.40;;;;;;5057755;28;20025;-49
2022/02/08 01:55:47;;;;;;;4.72;1.33;;;8.10;94.40;;;;;;5060054;28;20036;-49
2022/02/08 01:58:13;;;;;;;3.20;1.02;;;8.10;94.40;;;;;;5062651;28;20032;-49
2022/02/08 02:00:40;;;;;;;2.83;0.95;;;8.20;94.40;;;;;;5061924;28;20357;-49
2022/02/08 02:03:05;;;;;;;2.60;1.20;;;8.10;94.40;;;;;;5055587;28;20470;-49
2022/02/08 02:05:31;;;;;;;7.45;1.05;;;8.10;94.30;;;;;;5054672;28;20038;-49
2022/02/08 02:07:58;;;;;;;5.47;1.35;;;8.10;94.40;;;;;;5062128;28;20486;-49
2022/02/08 02:10:25;;;;;;;4.00;1.25;;;8.10;94.40;;;;;;5060401;28;20074;-49
2022/02/08 02:12:52;;;;;;;2.38;1.48;;;8.10;94.40;;;;;;5059310;28;20470;-49
2022/02/08 02:15:18;;;;;;;1.52;1.00;;;8.10;94.40;;;;;;5063110;28;20031;-49
2022/02/08 02:17:44;;;;;;;5.90;1.10;;;8.10;94.40;;;;;;5061405;28;20024;-49
2022/02/08 02:20:10;;;;;;;3.03;1.40;;;8.10;94.30;;;;;;5055387;28;20083;-49
2022/02/08 02:22:35;;;;;;;1.55;0.95;;;8.10;94.40;;;;;;5057597;28;20047;-49
2022/02/08 02:25:01;;;;;;;0.75;0.68;;;8.10;94.30;;;;;;5061442;28;20389;-49
2022/02/08 02:27:26;;;;;;;1.42;0.70;;;8.00;94.40;;;;;;5059519;28;20040;-48
2022/02/08 02:29:52;;;;;;;1.35;1.05;;;8.10;94.50;;;;;;5061979;28;20078;-49
2022/02/08 02:32:18;;;;;;;1.67;1.05;;;8.10;94.40;;;;;;5057980;28;20116;-49
2022/02/08 02:34:50;;;;;;;2.17;0.95;;;8.10;94.50;;;;;;5054764;28;20024;-48
2022/02/08 02:37:18;;;;;;;2.35;0.73;;;8.10;94.40;;;;;;5061117;28;20518;-49
2022/02/08 02:39:44;;;;;;;1.67;1.00;;;8.10;94.40;;;;;;5059622;28;20033;-49
2022/02/08 02:42:12;;;;;;;2.38;0.98;;;8.10;94.50;;;;;;5059886;28;20052;-49
2022/02/08 02:44:38;;;;;;;3.42;1.27;;;8.10;94.40;;;;;;5065662;28;20032;-49
2022/02/08 02:47:04;;;;;;;0.80;0.60;;;8.00;94.40;;;;;;5059648;28;20032;-49
2022/02/08 02:49:30;;;;;;;2.70;1.40;;;8.10;94.40;;;;;;5056583;28;20458;-49
2022/02/08 02:51:56;;;;;;;2.97;1.85;;;8.10;94.30;;;;;;5056505;28;20024;-49
2022/02/08 02:54:21;;;;;;;3.38;1.10;;;8.10;94.40;;;;;;5060915;28;20074;-50
2022/02/08 02:56:48;;;;;;;1.17;0.75;;;8.10;94.40;;;;;;5061980;28;20028;-49
2022/02/08 02:59:17;;;;;;;4.55;1.20;;;8.10;94.40;;;;;;5059978;28;20024;-49
2022/02/08 03:05:02;;;;;;;0.50;0.50;;;8.00;94.50;;;;;;5056540;28;20660;-49
2022/02/08 03:18:38;;;;;;;6.80;1.40;;;8.10;94.30;;;;;;5076586;28;20566;-49
2022/02/08 03:21:07;;;;;;;2.83;1.00;;;8.10;94.20;;;;;;5077575;28;20175;-49
2022/02/08 03:23:32;;;;;;;7.63;1.58;;;8.20;94.20;;;;;;5079147;28;20667;-49
2022/02/08 03:25:59;;;;;;;3.28;1.42;;;8.10;94.20;;;;;;5076453;28;20031;-49
2022/02/08 03:28:25;;;;;;;6.65;0.88;;;8.10;94.20;;;;;;5076807;28;20102;-49
2022/02/08 03:30:51;;;;;;;3.20;0.98;;;8.10;94.20;;;;;;5078449;28;20418;-49
2022/02/08 03:33:17;;;;;;;2.03;0.93;;;8.10;94.30;;;;;;5079016;28;20115;-49
2022/02/08 03:35:45;;;;;;;1.13;0.93;;;8.10;94.50;;;;;;5074990;28;20123;-49
2022/02/08 03:38:14;;;;;;;1.20;1.10;;;8.10;94.50;;;;;;5077803;28;20036;-49
2022/02/08 03:40:44;;;;;;;0.65;0.63;;;8.10;94.20;;;;;;5085987;28;20171;-49
2022/02/08 03:45:49;;;;;;;2.90;1.70;;;8.10;94.30;;;;;;5059172;28;20061;-48
2022/02/08 03:48:18;;;;;;;3.10;1.08;;;8.10;94.20;;;;;;5059668;28;20478;-49
2022/02/08 03:50:49;;;;;;;6.47;1.77;;;8.10;94.10;;;;;;5055318;28;20072;-49
2022/02/08 03:53:15;;;;;;;2.85;1.05;;;8.00;94.30;;;;;;5058598;28;20040;-49
2022/02/08 03:55:40;;;;;;;4.60;1.10;;;8.10;94.30;;;;;;5058433;28;20021;-49
2022/02/08 03:58:06;;;;;;;0.88;0.88;;;8.00;94.20;;;;;;5060672;28;20031;-49
2022/02/08 04:00:39;;;;;;;5.72;0.82;;;8.00;94.20;;;;;;5060652;28;20020;-49
2022/02/08 04:03:05;;;;;;;0.77;0.75;;;8.10;94.30;;;;;;5057719;28;20071;-49
2022/02/08 04:05:36;;;;;;;1.20;0.90;;;8.10;94.10;;;;;;5054419;28;20446;-49
2022/02/08 04:08:06;;;;;;;0.75;0.75;;;8.10;94.10;;;;;;5060130;28;20037;-49
2022/02/08 04:10:32;;;;;;;;;;;8.10;94.10;;;;;;5059172;28;20024;-49
2022/02/08 04:34:39;;;;;;;6.60;0.98;;;8.00;94.10;;;;;;5059426;28;20120;-49
2022/02/08 04:47:44;;;;;;;2.40;1.13;;;8.00;94.20;;;;;;5062533;28;20029;-49
2022/02/08 04:50:12;;;;;;;3.35;0.93;;;8.00;94.10;;;;;;5060614;28;20454;-49
2022/02/08 04:52:37;;;;;;;5.63;1.02;;;8.00;94.00;;;;;;5063412;28;20127;-49
2022/02/08 04:57:49;;;;;;;5.00;1.20;;;8.10;94.00;;;;;;5062259;28;20024;-49
2022/02/08 05:28:05;;;;;;;2.67;0.73;;;8.00;94.00;;;;;;5057093;28;20485;-49
2022/02/08 05:43:46;;;;;;;7.55;1.65;;;8.00;94.20;;;;;;5060145;28;20023;-49
2022/02/08 05:48:33;;;;;;;2.20;1.20;;;8.10;94.10;;;;;;5059493;28;20028;-49
2022/02/08 05:51:06;;;;;;;4.82;1.40;;;8.00;94.10;;;;;;5055760;28;20025;-49
2022/02/08 05:53:42;;;;;;;2.13;1.05;;;8.00;94.10;;;;;;5060176;28;20029;-49
2022/02/08 05:56:08;;;;;;;5.18;1.60;;;8.00;94.10;;;;;;5061226;28;20040;-49
2022/02/08 05:58:35;;;;;;;4.63;1.63;;;8.10;94.10;;;;;;5059733;28;20087;-49
2022/02/08 06:01:00;;;;;;;7.32;1.52;;;8.10;94.20;;;;;;5061193;28;20379;-49
2022/02/08 06:03:26;;;;;;;7.75;1.05;;;8.10;94.00;;;;;;5060093;28;20067;-49
2022/02/08 06:05:52;;;;;;;1.48;1.17;;;8.10;94.10;;;;;;5055470;28;20028;-49
2022/02/08 06:08:18;;;;;;;3.75;1.13;;;8.00;94.10;;;;;;5062239;28;20370;-50
2022/02/08 06:10:50;;;;;;;9.48;1.52;;;8.00;94.10;;;;;;5058183;28;20450;-49
2022/02/08 06:13:17;;;;;;;2.85;1.38;;;8.10;94.10;;;;;;5060898;28;20029;-49
2022/02/08 06:15:45;;;;;;;7.20;1.35;;;8.00;94.50;;;;;;5059940;28;20413;-49
2022/02/08 06:18:10;;;;;;;10.25;1.40;;;8.10;94.10;;;;;;5062871;28;20100;-49
2022/02/08 06:20:36;;;;;;;10.50;2.10;;;8.10;94.20;;;;;;5054716;28;20124;-49
2022/02/08 06:23:02;;;;;;;7.40;1.77;;;8.10;94.10;;;;;;5059781;28;20024;-49
2022/02/08 06:25:28;;;;;;;2.50;1.27;;;8.10;94.20;;;;;;5073986;28;20073;-49
2022/02/08 06:27:53;;;;;;;2.97;1.33;;;8.10;94.20;;;;;;5058713;28;20036;-50
2022/02/08 06:30:22;;;;;;;5.75;1.33;;;8.00;94.10;;;;;;5058863;28;20366;-49
2022/02/08 06:32:50;;;;;;;3.58;1.15;;;8.00;94.10;;;;;;5059748;28;20041;-49
2022/02/08 06:35:34;;;;;;;7.57;1.52;;;8.00;94.10;;;;;;5062158;28;20025;-49
2022/02/08 06:38:01;;;;;;;6.75;1.60;;;8.10;94.10;;;;;;5061229;28;20442;-49
2022/02/08 06:40:28;;;;;;;2.97;1.40;;;8.10;94.10;;;;;;5060803;28;20450;-49
2022/02/08 06:42:58;;;;;;;1.75;1.10;;;8.00;94.20;;;;;;5057480;28;20456;-49
2022/02/08 06:45:24;;;;;;;;;;;8.00;94.20;;;;;;5061819;28;20074;-49
2022/02/08 06:47:52;;;;;;;3.78;1.58;;;8.00;94.40;;;;;;5059454;28;20013;-49
2022/02/08 06:50:18;;;;;;;2.75;1.13;;;8.00;94.10;;;;;;5060004;28;20059;-49
2022/02/08 06:52:44;;;;;;;6.40;1.63;;;8.10;94.10;;;;;;5057255;28;20029;-49
2022/02/08 06:55:11;;;;;;;2.03;0.90;;;8.10;94.10;;;;;;5059236;28;20159;-50
2022/02/08 06:57:49;;;;;;;4.32;1.35;;;8.10;94.10;;;;;;5065803;28;20143;-49
2022/02/08 07:00:18;;;;;;;6.15;1.42;;;8.10;94.10;;;;;;5068033;28;20133;-50
2022/02/08 07:02:44;;;;;;;3.88;1.08;;;8.10;94.10;;;;;;5069914;28;20021;-49
2022/02/08 07:05:09;;;;;;;2.15;1.10;;;8.10;94.20;;;;;;5073489;28;20039;-49
2022/02/08 07:07:35;;;;;;;1.23;1.00;;;8.10;94.20;;;;;;5062359;28;20033;-50
2022/02/08 07:10:03;;;;;;;6.13;1.35;;;8.10;94.10;;;;;;5073519;28;20027;-49
2022/02/08 07:12:28;;;;;;;6.78;1.52;;;8.10;94.20;;;;;;5070926;28;20036;-49
2022/02/08 07:14:55;;;;;;;2.53;1.52;;;8.10;94.10;;;;;;5071113;28;20032;-49
2022/02/08 07:17:20;;;;;;;1.88;1.40;;;8.10;94.10;;;;;;5074817;28;20025;-49
2022/02/08 07:19:46;;;;;;;2.15;1.08;;;8.10;94.10;;;;;;5072524;28;20056;-49
2022/02/08 07:22:11;;;;;;;2.03;1.27;;;8.10;94.10;;;;;;5068417;28;20450;-49
2022/02/08 07:24:37;;;;;;;2.13;1.08;;;8.10;94.10;;;;;;5070589;28;20081;-50
2022/02/08 07:27:03;;;;;;;6.13;2.08;;;8.10;94.20;;;;;;5076907;28;20139;-49
2022/02/08 07:29:29;;;;;;;7.22;1.27;;;8.10;94.10;;;;;;5064808;28;20036;-49
2022/02/08 07:31:59;;;;;;;3.97;1.45;;;8.10;94.10;;;;;;5071761;28;20056;-50
2022/02/08 07:34:42;;;;;;;2.17;1.08;;;8.10;94.10;;;;;;5071050;28;20067;-49
2022/02/08 07:37:20;;;;;;;6.80;1.33;;;8.10;94.20;;;;;;5065022;28;20106;-49
2022/02/08 07:39:51;;;;;;;2.60;1.13;;;8.10;94.10;;;;;;5065857;28;20081;-49
2022/02/08 07:42:17;;;;;;;2.00;1.27;;;8.00;94.20;;;;;;5071416;28;20025;-50
2022/02/08 07:44:42;;;;;;;2.50;0.90;;;8.10;94.30;;;;;;5070364;28;20090;-49
2022/02/08 07:47:08;;;;;;;4.40;1.30;;;8.10;94.20;;;;;;5068426;28;20128;-49
2022/02/08 07:49:37;;;;;;;6.93;1.42;;;8.00;94.20;;;;;;5070466;28;20023;-50
2022/02/08 07:52:03;;;;;;;10.23;1.17;;;8.10;94.20;;;;;;5069772;28;20039;-50
2022/02/08 07:54:29;;;;;;;1.95;1.40;;;8.10;94.20;;;;;;5071298;28;20045;-49
2022/02/08 07:56:55;;;;;;;9.88;1.63;;;8.10;94.30;;;;;;5079296;28;20051;-49
2022/02/08 07:59:20;;;;;;;5.35;1.77;;;8.10;94.20;;;;;;5074852;28;20103;-49
2022/02/08 08:01:46;;;;;;;5.70;1.63;;;8.10;94.10;;;;;;5073920;28;20029;-49
2022/02/08 08:04:11;;;;;;;9.27;1.40;;;8.20;94.20;;;;;;5072960;28;20027;-50
2022/02/08 08:06:37;;;;;;;6.15;1.95;;;8.10;94.20;;;;;;5069105;28;20653;-49
2022/02/08 08:09:07;;;;;;;2.63;1.30;;;8.20;94.60;;;;;;5076515;28;20035;-49
2022/02/08 08:11:42;;;;;;;6.25;2.38;;;8.10;94.20;;;;;;5071486;28;20025;-49
2022/02/08 08:14:10;;;;;;;3.85;1.42;;;8.10;94.20;;;;;;5072272;28;20069;-49
2022/02/08 08:19:19;;;;;;;4.80;1.45;;;8.10;94.40;;;;;;5075280;28;20370;-49
2022/02/08 08:21:45;;;;;;;0.73;0.73;;;8.10;94.30;;;;;;5070661;28;20028;-49
2022/02/08 08:24:12;;;;;;;9.38;1.40;;;8.10;94.50;;;;;;5073008;28;20025;-49
2022/02/08 08:26:37;;;;;;;7.10;1.63;;;8.10;94.60;;;;;;5075793;28;20119;-49
2022/02/08 08:29:03;;;;;;;1.38;1.05;;;8.00;94.60;;;;;;5074309;28;20191;-50
2022/02/08 08:31:29;;;;;;;2.28;1.27;;;8.10;94.60;;;;;;5073747;28;20020;-49
2022/02/08 08:33:55;;;;;;;12.20;1.50;;;8.10;94.40;;;;;;5076022;28;20677;-50
2022/02/08 08:36:22;;;;;;;6.22;1.65;;;8.10;94.60;;;;;;5072958;28;20111;-49
2022/02/08 08:38:50;;;;;;;1.65;1.10;;;8.10;94.70;;;;;;5072584;28;20036;-49
2022/02/08 08:41:36;;;;;;;5.53;1.35;;;8.10;94.60;;;;;;5073244;28;20024;-49
2022/02/08 08:51:56;;;;;;;3.90;1.27;;;8.10;94.80;;;;;;5066326;28;20390;-50
2022/02/08 08:54:22;;;;;;;2.80;1.08;;;8.20;94.70;;;;;;5067843;28;20021;-50
2022/02/08 08:56:50;;;;;;;1.88;1.38;;;8.20;94.70;;;;;;5069773;28;20023;-49
2022/02/08 08:59:16;;;;;;;4.43;1.50;;;8.20;94.70;;;;;;5069429;28;20033;-49
2022/02/08 09:01:43;;;;;;;2.45;1.25;;;8.20;94.90;;;;;;5070616;28;20040;-49
2022/02/08 09:04:09;;;;;;;3.53;1.42;;;8.20;94.70;;;;;;5073112;28;20079;-50
2022/02/08 09:06:36;;;;;;;2.55;1.10;;;8.20;94.90;;;;;;5069802;28;20033;-49
2022/02/08 09:09:06;;;;;;;6.15;1.48;;;8.20;94.70;;;;;;5076741;28;20348;-49
2022/02/08 09:11:51;;;;;;;4.90;1.40;;;8.30;94.60;;;;;;5069809;28;20044;-49
2022/02/08 09:14:19;;;;;;;2.80;1.33;;;8.20;94.80;;;;;;5073692;28;20032;-49
2022/02/08 09:16:52;;;;;;;5.80;2.13;;;8.30;94.70;;;;;;5069563;28;20060;-49
2022/02/08 09:22:50;;;;;;;3.03;1.15;;;8.30;94.80;;;;;;5066195;28;20396;-49
2022/02/08 09:30:18;;;;;;;3.13;1.40;;;8.30;94.80;;;;;;5070909;28;20021;-49
2022/02/08 09:32:48;;;;;;;3.15;1.17;;;8.30;94.70;;;;;;5070808;28;20056;-50
2022/02/08 09:35:16;;;;;;;8.63;1.08;;;8.30;94.80;;;;;;5071187;28;20082;-49
2022/02/08 09:37:43;;;;;;;3.63;1.20;;;8.30;94.60;;;;;;5072483;28;20063;-49
2022/02/08 09:40:11;;;;;;;12.32;1.50;;;8.40;94.60;;;;;;5075888;28;20021;-49
2022/02/08 09:42:39;;;;;;;4.45;1.33;;;8.30;95.00;;;;;;5070287;28;20364;-49
2022/02/08 09:45:07;;;;;;;1.00;0.75;;;8.30;94.70;;;;;;5069958;28;20421;-49
2022/02/08 09:47:48;;;;;;;4.53;1.48;;;8.40;94.60;;;;;;5074140;28;20496;-49
2022/02/08 09:50:19;;;;;;;2.55;1.20;;;8.40;94.70;;;;;;5070347;28;20366;-49
2022/02/08 09:52:51;;;;;;;0.50;0.50;;;8.40;94.60;;;;;;5065218;28;20465;-49
2022/02/08 09:55:19;;;;;;;9.48;1.27;;;8.40;94.50;;;;;;5073620;28;20566;-49
2022/02/08 09:57:45;;;;;;;1.50;0.77;;;8.40;94.60;;;;;;5073271;28;20024;-49
2022/02/08 10:00:11;;;;;;;3.67;1.00;;;8.40;94.60;;;;;;5073200;28;20028;-49
2022/02/08 10:02:37;;;;;;;2.38;1.48;;;8.30;94.50;;;;;;5069695;28;20033;-49
2022/02/08 10:05:05;;;;;;;0.60;0.60;;;8.40;94.70;;;;;;5068664;28;20040;-50
2022/02/08 10:07:33;;;;;;;3.47;1.40;;;8.40;94.50;;;;;;5070311;28;20040;-49
2022/02/08 10:10:05;;;;;;;2.38;1.05;;;8.40;94.40;;;;;;5075260;28;20107;-49
2022/02/08 10:12:59;;;;;;;1.88;1.48;;;8.40;94.50;;;;;;5069562;28;20025;-50
2022/02/08 10:24:00;;;;;;;2.47;2.30;;;8.40;94.80;;;;;;5068702;28;20541;-49
2022/02/08 10:26:37;;;;;;;6.13;1.45;;;8.50;94.30;;;;;;5064475;28;20037;-49
2022/02/08 10:29:11;;;;;;;5.85;1.20;;;8.50;94.60;;;;;;5068664;28;20082;-49
2022/02/08 10:40:02;;;;;;;4.60;1.95;;;8.50;94.60;;;;;;5071453;28;20090;-49
2022/02/08 10:42:29;;;;;;;2.40;0.47;;;8.50;94.80;;;;;;5070626;28;20120;-49
2022/02/08 10:44:56;;;;;;;2.88;0.98;;;8.50;94.70;;;;;;5070613;28;20361;-49
2022/02/08 10:47:40;;;;;;;1.25;0.85;;;8.50;94.50;;;;;;5074525;28;20413;-49
2022/02/08 10:50:09;;;;;;;0.95;0.68;;;8.50;94.40;;;;;;5067283;28;20020;-49
2022/02/08 10:52:37;;;;;;;3.15;1.05;;;8.50;94.70;;;;;;5069635;28;20527;-49
2022/02/08 10:55:23;;;;;;;7.18;1.38;;;8.50;94.60;;;;;;5070052;28;20037;-50
2022/02/08 10:58:01;;;;;;;2.25;1.17;;;8.50;94.70;;;;;;5070994;28;20213;-49
2022/02/08 11:01:14;;;;;;;1.25;0.80;;;8.60;94.80;;;;;;5071366;28;20424;-49
2022/02/08 11:03:23;;;;;;;5.82;1.02;;;8.60;95.00;;;;;;5072840;28;20036;-49
2022/02/08 11:06:08;;;;;;;3.88;1.38;;;8.70;94.80;;;;;;5070896;28;20122;-49
2022/02/08 11:11:55;;;;;;;3.43;1.10;;;8.70;95.10;;;;;;5069575;28;20110;-49
2022/02/08 11:15:28;;;;;;;8.50;1.30;;;8.80;95.00;;;;;;5073029;28;20055;-49
2022/02/08 11:20:23;;;;;;;1.30;0.98;;;8.80;94.60;;;;;;5072669;28;20031;-49
2022/02/08 11:23:03;;;;;;;1.92;0.98;;;8.70;95.00;;;;;;5065703;28;20052;-49
2022/02/08 11:25:39;;;;;;;3.05;1.33;;;8.70;94.90;;;;;;5068405;28;20081;-49
2022/02/08 11:28:13;;;;;;;0.63;0.63;;;8.80;94.90;;;;;;5073289;28;20461;-49
2022/02/08 11:30:51;;;;;;;1.30;0.98;;;8.80;95.30;;;;;;5077096;28;20365;-49
2022/02/08 11:45:43;;;;;;;0.80;0.77;;;9.00;94.90;;;;;;5018072;28;20049;-49
2022/02/08 11:58:58;;;;;;;3.70;0.98;;;9.30;95.10;;;;;;5075072;28;20044;-49
2022/02/08 12:01:58;;;;;;;2.22;1.10;;;9.40;94.90;;;;;;5069542;28;20016;-49
2022/02/08 12:12:40;;;;;;;4.68;0.82;;;9.60;94.80;;;;;;5070644;28;20024;-49
2022/02/08 12:58:56;;;;;;;0.30;0.30;;;9.70;95.80;;;;;;5074185;28;20032;-49
2022/02/08 13:04:46;;;;;;;4.95;1.13;;;9.70;95.60;;;;;;5069734;28;20040;-50
2022/02/08 14:01:49;;;;;;;7.63;1.23;;;9.70;96.60;;;;;;5071006;28;20362;-50
2022/02/08 14:14:38;;;;;;;2.03;0.93;;;9.90;96.10;;;;;;5073312;28;20082;-50
2022/02/08 14:19:53;;;;;;;1.77;1.25;;;10.00;96.00;;;;;;5077689;28;20040;-50
2022/02/08 14:30:02;;;;;;;2.35;1.00;;;9.70;96.70;;;;;;5071428;28;20115;-50
2022/02/08 14:32:45;;;;;;;2.63;1.15;;;9.60;97.30;;;;;;5075592;28;20031;-50
2022/02/08 14:49:17;;;;;;;12.93;1.75;;;9.80;97.10;;;;;;5070521;28;20042;-50
2022/02/08 15:08:27;;;;;;;1.00;0.77;;;9.70;97.10;;;;;;5070759;28;20082;-50
2022/02/08 15:10:55;;;;;;;7.20;1.30;;;9.60;97.20;;;;;;5067503;28;20032;-49
2022/02/08 15:13:25;;;;;;;6.22;1.10;;;9.50;97.20;;;;;;5071134;28;20036;-49
2022/02/08 15:18:37;;;;;;;4.13;1.08;;;9.60;97.20;;;;;;5074439;28;20056;-50
2022/02/08 15:21:05;;;;;;;8.88;1.20;;;9.60;97.20;;;;;;5071343;28;20453;-50
2022/02/08 15:23:31;;;;;;;7.00;1.35;;;9.60;96.90;;;;;;5072902;28;20025;-50
2022/02/08 15:25:58;;;;;;;3.47;1.00;;;9.60;97.00;;;;;;5069892;28;20028;-50
2022/02/08 15:28:26;;;;;;;0.40;0.40;;;9.60;97.10;;;;;;5075655;28;20127;-49
2022/02/08 15:30:53;;;;;;;2.08;1.02;;;9.50;96.90;;;;;;5074783;28;20402;-50
2022/02/08 15:33:20;;;;;;;0.80;0.80;;;9.50;97.10;;;;;;5069895;28;20044;-50
2022/02/08 15:35:46;;;;;;;1.55;1.05;;;9.50;97.10;;;;;;5073129;28;20040;-50
2022/02/08 15:38:11;;;;;;;2.85;1.23;;;9.50;97.00;;;;;;5072868;28;20027;-49
2022/02/08 15:40:38;;;;;;;1.15;1.05;;;9.50;97.20;;;;;;5066693;28;20036;-50
2022/02/08 15:43:04;;;;;;;2.35;1.13;;;9.40;97.10;;;;;;5069211;28;20394;-50
2022/02/08 15:45:34;;;;;;;7.57;1.50;;;9.40;97.20;;;;;;5071538;28;20500;-50
2022/02/08 15:48:00;;;;;;;1.95;1.10;;;9.40;97.20;;;;;;5074791;28;20034;-49
2022/02/08 15:56:19;;;;;;;5.85;1.17;;;9.40;97.10;;;;;;5068902;28;20028;-50
2022/02/08 16:06:53;;;;;;;5.55;1.60;;;9.40;97.00;;;;;;5067648;28;20043;-50
2022/02/08 16:32:57;;;;;;;15.57;5.05;;;9.50;97.10;;;;;;5074220;28;20408;-49
2022/02/08 16:46:36;;;;;;;3.60;2.13;;;9.50;96.50;;;;;;5074580;28;20453;-49
2022/02/08 16:54:24;;;;;;;4.22;2.17;;;9.50;96.60;;;;;;5061003;28;20027;-49
2022/02/08 16:56:57;;;;;;;5.30;2.13;;;9.50;96.50;;;;;;5071752;28;20032;-50
2022/02/08 16:59:33;;;;;;;3.83;2.58;;;9.50;96.50;;;;;;5072750;28;20025;-50
2022/02/08 17:02:02;;;;;;;6.68;2.67;;;9.50;96.40;;;;;;5072107;28;20029;-49
2022/02/08 17:04:27;;;;;;;6.70;2.28;;;9.50;96.40;;;;;;5068336;28;20025;-49
2022/02/08 17:06:53;;;;;;;3.58;2.30;;;9.50;96.40;;;;;;5069851;28;20063;-49
2022/02/08 17:09:39;;;;;;;6.55;2.75;;;9.50;96.40;;;;;;5075724;28;20029;-50
2022/02/08 17:12:15;;;;;;;8.05;2.33;;;9.50;96.30;;;;;;5072885;28;20029;-49
2022/02/08 17:15:07;;;;;;;7.43;2.40;;;9.50;96.40;;;;;;5072827;28;20607;-50
2022/02/08 17:49:58;;;;;;;4.65;2.38;;;9.40;96.40;;;;;;5072449;28;20097;-49
2022/02/08 17:52:24;;;;;;;3.33;2.08;;;9.40;96.70;;;;;;5070502;28;20028;-49
2022/02/08 17:54:49;;;;;;;8.93;2.33;;;9.40;96.40;;;;;;5074464;28;20024;-49
2022/02/08 17:57:15;;;;;;;2.50;1.20;;;9.40;96.40;;;;;;5069532;28;20027;-50
2022/02/08 17:59:41;;;;;;;7.30;2.63;;;9.40;96.30;;;;;;5071752;28;20029;-49
2022/02/08 18:02:09;;;;;;;5.53;2.92;;;9.40;96.40;;;;;;5073001;28;20304;-49
2022/02/08 18:04:35;;;;;;;5.40;2.05;;;9.40;96.40;;;;;;5064496;28;20842;-49
2022/02/08 18:07:02;;;;;;;17.33;5.68;;;9.40;96.50;;;;;;5068502;28;20074;-49
2022/02/08 18:09:29;;;;;;;5.30;2.42;;;9.40;96.40;;;;;;5061201;28;20028;-49
2022/02/08 18:11:58;;;;;;;7.22;3.53;;;9.40;96.40;;;;;;5061586;28;20028;-49
2022/02/08 18:14:24;;;;;;;7.80;3.03;;;9.40;96.40;;;;;;5063631;28;20025;-49
2022/02/08 18:17:04;;;;;;;9.70;2.80;;;9.40;96.50;;;;;;5062037;28;20053;-49
2022/02/08 18:19:34;;;;;;;5.70;2.38;;;9.30;96.50;;;;;;5064612;28;20355;-49
2022/02/08 18:57:36;;;;;;;6.25;3.00;;;9.30;96.30;;;;;;5061583;28;20108;-50
2022/02/08 19:18:45;;;;;;;5.88;2.25;;;9.30;96.50;;;;;;5064352;28;20029;-49
2022/02/08 19:21:33;;;;;;;9.02;3.33;;;9.30;96.50;;;;;;5063151;28;20040;-49
2022/02/08 19:23:56;;;;;;;9.27;2.80;;;9.30;96.40;;;;;;5067674;28;20032;-49
2022/02/08 19:26:22;;;;;;;6.72;2.67;;;9.30;96.40;;;;;;5066821;28;20020;-49
2022/02/08 19:28:53;;;;;;;4.10;2.10;;;9.30;96.40;;;;;;5064617;28;20032;-49
2022/02/08 19:31:22;;;;;;;12.05;3.35;;;9.30;96.40;;;;;;5066252;28;20028;-49
2022/02/08 19:33:51;;;;;;;17.83;4.55;;;9.20;96.40;;;;;;5065577;28;20041;-49
2022/02/08 19:36:18;;;;;;;5.93;2.13;;;9.20;96.40;;;;;;5065045;28;20029;-49
2022/02/08 19:38:48;;;;;;;12.38;3.45;;;9.20;96.50;;;;;;5067777;28;20024;-49
2022/02/08 19:41:19;;;;;;;9.73;3.57;;;9.20;96.40;;;;;;5066522;28;20519;-49
2022/02/08 19:43:47;;;;;;;10.70;3.35;;;9.20;96.50;;;;;;5064098;28;20082;-49
2022/02/08 19:46:13;;;;;;;12.18;3.85;;;9.20;96.40;;;;;;5065215;28;20020;-49
2022/02/08 19:48:39;;;;;;;6.28;2.55;;;9.20;96.40;;;;;;5069250;28;20040;-49
2022/02/08 19:51:05;;;;;;;10.02;4.53;;;9.30;96.50;;;;;;5071576;28;20365;-49
2022/02/08 19:53:33;;;;;;;7.40;4.45;;;9.20;96.50;;;;;;5073063;28;20029;-49
2022/02/08 19:58:53;;;;;;;9.13;4.35;;;9.30;96.50;;;;;;5069510;28;20430;-49
2022/02/08 20:01:29;;;;;;;9.32;3.80;;;9.30;96.50;;;;;;5070012;28;20079;-49
2022/02/08 20:04:03;;;;;;;10.82;4.18;;;9.30;96.50;;;;;;5071126;28;20029;-49
2022/02/08 20:06:30;;;;;;;5.28;3.00;;;9.20;96.50;;;;;;5070434;28;20116;-49
2022/02/08 20:08:56;;;;;;;5.57;2.88;;;9.20;96.50;;;;;;5071497;28;20025;-49
2022/02/08 20:11:22;;;;;;;6.30;2.85;;;9.20;96.50;;;;;;5070907;28;20012;-49
2022/02/08 20:13:51;;;;;;;9.10;4.13;;;9.20;96.60;;;;;;5067992;28;20020;-49
2022/02/08 20:16:18;;;;;;;7.40;3.70;;;9.20;96.50;;;;;;5072337;28;20063;-49
2022/02/08 20:18:46;;;;;;;10.90;3.78;;;9.20;96.50;;;;;;5067025;28;20098;-49
2022/02/08 20:21:11;;;;;;;9.20;4.13;;;9.20;96.60;;;;;;5068169;28;20382;-50
2022/02/08 20:23:38;;;;;;;9.57;3.45;;;9.20;96.60;;;;;;5065679;28;20021;-50
2022/02/08 20:26:04;;;;;;;11.75;3.25;;;9.20;96.70;;;;;;5064243;28;20024;-49
2022/02/08 20:28:37;;;;;;;7.82;2.80;;;9.20;96.60;;;;;;5061683;28;20098;-50
2022/02/08 20:31:04;;;;;;;7.63;3.30;;;9.20;96.60;;;;;;5065847;28;20021;-49
2022/02/08 20:33:29;;;;;;;8.10;2.78;;;9.20;97.00;;;;;;5059693;28;20021;-49
2022/02/08 20:35:55;;;;;;;5.95;2.95;;;9.20;96.60;;;;;;5068071;28;21018;-49
2022/02/08 20:38:21;;;;;;;7.55;1.98;;;9.20;96.70;;;;;;5061156;28;20485;-49
2022/02/08 20:40:49;;;;;;;4.07;2.65;;;9.20;96.60;;;;;;5068622;28;20739;-50
2022/02/08 20:43:16;;;;;;;6.45;2.33;;;9.20;96.60;;;;;;5061488;28;20469;-49
2022/02/08 20:45:42;;;;;;;5.18;2.72;;;9.20;96.60;;;;;;5066303;28;20098;-49
2022/02/08 20:48:08;;;;;;;4.30;2.65;;;9.20;96.60;;;;;;5068683;28;20505;-49
2022/02/08 20:50:37;;;;;;;6.78;2.47;;;9.20;96.90;;;;;;5065848;28;20013;-49
2022/02/08 20:55:49;;;;;;;5.32;2.65;;;9.20;96.60;;;;;;5064137;28;20325;-49
2022/02/08 20:58:37;;;;;;;7.13;2.40;;;9.20;96.60;;;;;;5067850;28;20427;-49
2022/02/08 21:01:03;;;;;;;5.63;2.60;;;9.20;96.60;;;;;;5070387;28;20025;-49
2022/02/08 21:03:40;;;;;;;5.32;2.50;;;9.20;96.60;;;;;;5069999;28;20465;-49
2022/02/08 21:06:12;;;;;;;4.07;2.22;;;9.20;96.60;;;;;;5069420;28;20086;-49
2022/02/08 21:08:39;;;;;;;4.57;2.33;;;9.20;96.60;;;;;;5073309;28;20047;-49
2022/02/08 21:11:06;;;;;;;4.93;2.72;;;9.20;96.60;;;;;;5073250;28;20378;-49
2022/02/08 21:16:07;;;;;;;5.03;2.25;;;9.20;96.60;;;;;;5069385;28;20033;-50
2022/02/08 21:18:33;;;;;;;4.95;2.78;;;9.20;96.60;;;;;;5073790;28;20016;-49
2022/02/08 21:20:59;;;;;;;7.35;2.58;;;9.20;96.50;;;;;;5076000;28;20045;-49
2022/02/08 21:23:25;;;;;;;5.75;2.95;;;9.20;96.60;;;;;;5070226;28;20013;-49